sensor_id;sensor_type;location;lat;lon;timestamp;temperature;humidity
41926;DHT22;27615;51.826;5.692;2022-08-07T00:01:42;16.70;72.10
41926;DHT22;27615;51.826;5.692;2022-08-07T00:04:07;16.70;72.20
41926;DHT22;27615;51.826;5.692;2022-08-07T00:06:33;16.70;72.30
41926;DHT22;27615;51.826;5.692;2022-08-07T00:08:59;16.60;72.40
41926;DHT22;27615;51.826;5.692;2022-08-07T00:11:24;16.60;72.70
41926;DHT22;27615;51.826;5.692;2022-08-07T00:13:50;16.50;72.70
41926;DHT22;27615;51.826;5.692;2022-08-07T00:16:16;16.50;72.70
41926;DHT22;27615;51.826;5.692;2022-08-07T00:18:41;16.50;72.90
41926;DHT22;27615;51.826;5.692;2022-08-07T00:21:08;16.40;73.00
41926;DHT22;27615;51.826;5.692;2022-08-07T00:23:36;16.40;73.20
41926;DHT22;27615;51.826;5.692;2022-08-07T00:26:04;16.40;73.30
41926;DHT22;27615;51.826;5.692;2022-08-07T00:28:31;16.40;73.40
41926;DHT22;27615;51.826;5.692;2022-08-07T00:30:57;16.30;73.60
41926;DHT22;27615;51.826;5.692;2022-08-07T00:33:23;16.30;73.70
41926;DHT22;27615;51.826;5.692;2022-08-07T00:35:55;16.20;73.80
41926;DHT22;27615;51.826;5.692;2022-08-07T00:38:22;16.20;73.80
41926;DHT22;27615;51.826;5.692;2022-08-07T00:40:47;16.10;74.20
41926;DHT22;27615;51.826;5.692;2022-08-07T00:43:13;16.00;74.30
41926;DHT22;27615;51.826;5.692;2022-08-07T00:45:40;16.00;74.50
41926;DHT22;27615;51.826;5.692;2022-08-07T00:48:06;16.00;74.60
41926;DHT22;27615;51.826;5.692;2022-08-07T00:50:32;16.00;74.70
41926;DHT22;27615;51.826;5.692;2022-08-07T00:52:58;16.00;74.80
41926;DHT22;27615;51.826;5.692;2022-08-07T00:55:24;16.00;74.90
41926;DHT22;27615;51.826;5.692;2022-08-07T00:57:50;15.90;75.10
41926;DHT22;27615;51.826;5.692;2022-08-07T01:00:17;15.90;75.20
41926;DHT22;27615;51.826;5.692;2022-08-07T01:02:44;15.80;75.30
41926;DHT22;27615;51.826;5.692;2022-08-07T01:05:10;15.80;75.50
41926;DHT22;27615;51.826;5.692;2022-08-07T01:07:36;15.80;75.60
41926;DHT22;27615;51.826;5.692;2022-08-07T01:10:02;15.80;75.70
41926;DHT22;27615;51.826;5.692;2022-08-07T01:12:29;15.70;75.80
41926;DHT22;27615;51.826;5.692;2022-08-07T01:14:54;15.70;75.90
41926;DHT22;27615;51.826;5.692;2022-08-07T01:17:22;15.60;76.10
41926;DHT22;27615;51.826;5.692;2022-08-07T01:19:49;15.60;76.40
41926;DHT22;27615;51.826;5.692;2022-08-07T01:22:15;15.50;76.50
41926;DHT22;27615;51.826;5.692;2022-08-07T01:24:41;15.50;76.70
41926;DHT22;27615;51.826;5.692;2022-08-07T01:27:08;15.50;76.80
41926;DHT22;27615;51.826;5.692;2022-08-07T01:29:33;15.40;76.90
41926;DHT22;27615;51.826;5.692;2022-08-07T01:31:59;15.40;77.10
41926;DHT22;27615;51.826;5.692;2022-08-07T01:34:25;15.40;77.20
41926;DHT22;27615;51.826;5.692;2022-08-07T01:36:51;15.30;77.30
41926;DHT22;27615;51.826;5.692;2022-08-07T01:39:16;15.30;77.40
41926;DHT22;27615;51.826;5.692;2022-08-07T01:41:42;15.30;77.60
41926;DHT22;27615;51.826;5.692;2022-08-07T01:44:09;15.20;77.70
41926;DHT22;27615;51.826;5.692;2022-08-07T01:46:35;15.20;77.80
41926;DHT22;27615;51.826;5.692;2022-08-07T01:49:01;15.20;78.00
41926;DHT22;27615;51.826;5.692;2022-08-07T01:51:28;15.20;78.20
41926;DHT22;27615;51.826;5.692;2022-08-07T01:53:57;15.10;78.30
41926;DHT22;27615;51.826;5.692;2022-08-07T01:56:30;15.10;78.60
41926;DHT22;27615;51.826;5.692;2022-08-07T01:59:04;15.00;78.70
41926;DHT22;27615;51.826;5.692;2022-08-07T02:01:39;15.00;79.00
41926;DHT22;27615;51.826;5.692;2022-08-07T02:04:27;15.00;79.20
41926;DHT22;27615;51.826;5.692;2022-08-07T02:06:56;14.90;79.20
41926;DHT22;27615;51.826;5.692;2022-08-07T02:09:24;14.90;80.00
41926;DHT22;27615;51.826;5.692;2022-08-07T02:11:51;14.80;79.60
41926;DHT22;27615;51.826;5.692;2022-08-07T02:14:19;14.70;79.70
41926;DHT22;27615;51.826;5.692;2022-08-07T02:16:46;14.70;79.90
41926;DHT22;27615;51.826;5.692;2022-08-07T02:19:13;14.70;80.10
41926;DHT22;27615;51.826;5.692;2022-08-07T02:21:40;14.60;80.20
41926;DHT22;27615;51.826;5.692;2022-08-07T02:24:07;14.60;80.40
41926;DHT22;27615;51.826;5.692;2022-08-07T02:26:35;14.50;80.50
41926;DHT22;27615;51.826;5.692;2022-08-07T02:29:05;14.50;80.80
41926;DHT22;27615;51.826;5.692;2022-08-07T02:31:32;14.50;80.90
41926;DHT22;27615;51.826;5.692;2022-08-07T02:33:59;14.50;81.60
41926;DHT22;27615;51.826;5.692;2022-08-07T02:36:26;14.40;81.10
41926;DHT22;27615;51.826;5.692;2022-08-07T02:38:53;14.40;81.30
41926;DHT22;27615;51.826;5.692;2022-08-07T02:41:19;14.40;81.40
41926;DHT22;27615;51.826;5.692;2022-08-07T02:43:48;14.30;81.60
41926;DHT22;27615;51.826;5.692;2022-08-07T02:46:15;14.30;81.80
41926;DHT22;27615;51.826;5.692;2022-08-07T02:48:42;14.30;82.00
41926;DHT22;27615;51.826;5.692;2022-08-07T02:51:11;14.20;82.00
41926;DHT22;27615;51.826;5.692;2022-08-07T02:53:39;14.20;82.30
41926;DHT22;27615;51.826;5.692;2022-08-07T02:56:11;14.10;82.50
41926;DHT22;27615;51.826;5.692;2022-08-07T02:58:37;14.10;82.70
41926;DHT22;27615;51.826;5.692;2022-08-07T03:01:04;14.10;83.00
41926;DHT22;27615;51.826;5.692;2022-08-07T03:03:32;14.10;83.20
41926;DHT22;27615;51.826;5.692;2022-08-07T03:06:00;14.10;83.30
41926;DHT22;27615;51.826;5.692;2022-08-07T03:08:26;14.00;83.30
41926;DHT22;27615;51.826;5.692;2022-08-07T03:10:52;14.00;83.50
41926;DHT22;27615;51.826;5.692;2022-08-07T03:13:19;14.00;83.60
41926;DHT22;27615;51.826;5.692;2022-08-07T03:15:46;13.90;83.60
41926;DHT22;27615;51.826;5.692;2022-08-07T03:18:13;13.90;83.80
41926;DHT22;27615;51.826;5.692;2022-08-07T03:20:40;13.90;83.90
41926;DHT22;27615;51.826;5.692;2022-08-07T03:23:07;13.90;84.00
41926;DHT22;27615;51.826;5.692;2022-08-07T03:25:36;13.90;84.10
41926;DHT22;27615;51.826;5.692;2022-08-07T03:28:03;13.90;84.40
41926;DHT22;27615;51.826;5.692;2022-08-07T03:30:30;13.80;84.70
41926;DHT22;27615;51.826;5.692;2022-08-07T03:32:57;13.80;85.00
41926;DHT22;27615;51.826;5.692;2022-08-07T03:35:25;13.70;85.10
41926;DHT22;27615;51.826;5.692;2022-08-07T03:38:06;13.70;85.30
41926;DHT22;27615;51.826;5.692;2022-08-07T03:40:32;13.70;85.30
41926;DHT22;27615;51.826;5.692;2022-08-07T03:42:59;13.60;85.50
41926;DHT22;27615;51.826;5.692;2022-08-07T03:45:27;13.60;85.60
41926;DHT22;27615;51.826;5.692;2022-08-07T03:47:55;13.60;85.60
41926;DHT22;27615;51.826;5.692;2022-08-07T03:50:21;13.60;85.70
41926;DHT22;27615;51.826;5.692;2022-08-07T03:52:47;13.60;85.80
41926;DHT22;27615;51.826;5.692;2022-08-07T03:55:14;13.50;85.80
41926;DHT22;27615;51.826;5.692;2022-08-07T03:57:41;13.60;86.00
41926;DHT22;27615;51.826;5.692;2022-08-07T04:00:07;13.50;86.00
41926;DHT22;27615;51.826;5.692;2022-08-07T04:02:33;13.60;86.10
41926;DHT22;27615;51.826;5.692;2022-08-07T04:04:59;13.50;86.10
41926;DHT22;27615;51.826;5.692;2022-08-07T04:07:25;13.50;86.20
41926;DHT22;27615;51.826;5.692;2022-08-07T04:09:51;13.50;86.30
41926;DHT22;27615;51.826;5.692;2022-08-07T04:12:17;13.50;86.30
41926;DHT22;27615;51.826;5.692;2022-08-07T04:14:43;13.50;86.50
41926;DHT22;27615;51.826;5.692;2022-08-07T04:17:10;13.50;86.80
41926;DHT22;27615;51.826;5.692;2022-08-07T04:19:35;13.40;86.90
41926;DHT22;27615;51.826;5.692;2022-08-07T04:22:04;13.40;87.00
41926;DHT22;27615;51.826;5.692;2022-08-07T04:24:30;13.40;87.30
41926;DHT22;27615;51.826;5.692;2022-08-07T04:26:55;13.40;87.60
41926;DHT22;27615;51.826;5.692;2022-08-07T04:29:22;13.30;87.90
41926;DHT22;27615;51.826;5.692;2022-08-07T04:31:48;13.30;88.10
41926;DHT22;27615;51.826;5.692;2022-08-07T04:34:14;13.30;88.30
41926;DHT22;27615;51.826;5.692;2022-08-07T04:36:40;13.30;88.40
41926;DHT22;27615;51.826;5.692;2022-08-07T04:39:07;13.40;88.50
41926;DHT22;27615;51.826;5.692;2022-08-07T04:41:33;13.30;88.50
41926;DHT22;27615;51.826;5.692;2022-08-07T04:44:00;13.30;88.60
41926;DHT22;27615;51.826;5.692;2022-08-07T04:46:46;13.30;88.80
41926;DHT22;27615;51.826;5.692;2022-08-07T04:49:41;13.40;88.80
41926;DHT22;27615;51.826;5.692;2022-08-07T04:52:20;13.30;89.00
41926;DHT22;27615;51.826;5.692;2022-08-07T04:55:15;13.30;89.00
41926;DHT22;27615;51.826;5.692;2022-08-07T04:57:53;13.30;89.00
41926;DHT22;27615;51.826;5.692;2022-08-07T05:00:33;13.30;89.10
41926;DHT22;27615;51.826;5.692;2022-08-07T05:06:04;13.30;89.80
41926;DHT22;27615;51.826;5.692;2022-08-07T05:08:47;13.40;89.20
41926;DHT22;27615;51.826;5.692;2022-08-07T05:11:45;13.40;89.40
41926;DHT22;27615;51.826;5.692;2022-08-07T05:14:36;13.40;89.60
41926;DHT22;27615;51.826;5.692;2022-08-07T05:17:04;13.40;89.60
41926;DHT22;27615;51.826;5.692;2022-08-07T05:19:37;13.40;89.70
41926;DHT22;27615;51.826;5.692;2022-08-07T05:22:07;13.40;89.80
41926;DHT22;27615;51.826;5.692;2022-08-07T05:24:33;13.50;89.90
41926;DHT22;27615;51.826;5.692;2022-08-07T05:27:15;13.50;90.00
41926;DHT22;27615;51.826;5.692;2022-08-07T05:30:00;13.50;90.00
41926;DHT22;27615;51.826;5.692;2022-08-07T05:32:27;13.50;90.00
41926;DHT22;27615;51.826;5.692;2022-08-07T05:34:54;13.60;90.10
41926;DHT22;27615;51.826;5.692;2022-08-07T05:37:21;13.60;90.20
41926;DHT22;27615;51.826;5.692;2022-08-07T05:39:47;13.70;90.20
41926;DHT22;27615;51.826;5.692;2022-08-07T05:42:13;13.70;90.30
41926;DHT22;27615;51.826;5.692;2022-08-07T05:44:39;13.70;90.60
41926;DHT22;27615;51.826;5.692;2022-08-07T05:47:05;13.70;90.40
41926;DHT22;27615;51.826;5.692;2022-08-07T05:49:32;13.80;90.50
41926;DHT22;27615;51.826;5.692;2022-08-07T05:51:58;13.80;90.50
41926;DHT22;27615;51.826;5.692;2022-08-07T05:54:24;13.80;90.60
41926;DHT22;27615;51.826;5.692;2022-08-07T05:56:50;13.90;90.60
41926;DHT22;27615;51.826;5.692;2022-08-07T05:59:18;13.90;90.60
41926;DHT22;27615;51.826;5.692;2022-08-07T06:01:44;14.00;90.70
41926;DHT22;27615;51.826;5.692;2022-08-07T06:04:13;14.00;90.80
41926;DHT22;27615;51.826;5.692;2022-08-07T06:06:39;14.00;90.80
41926;DHT22;27615;51.826;5.692;2022-08-07T06:09:05;14.10;90.90
41926;DHT22;27615;51.826;5.692;2022-08-07T06:11:32;14.10;90.90
41926;DHT22;27615;51.826;5.692;2022-08-07T06:13:58;14.20;91.10
41926;DHT22;27615;51.826;5.692;2022-08-07T06:16:26;14.10;91.10
41926;DHT22;27615;51.826;5.692;2022-08-07T06:18:56;14.20;91.10
41926;DHT22;27615;51.826;5.692;2022-08-07T06:21:23;14.20;91.20
41926;DHT22;27615;51.826;5.692;2022-08-07T06:23:49;14.30;91.20
41926;DHT22;27615;51.826;5.692;2022-08-07T06:26:14;14.30;91.20
41926;DHT22;27615;51.826;5.692;2022-08-07T06:28:51;14.40;91.20
41926;DHT22;27615;51.826;5.692;2022-08-07T06:31:18;14.50;91.20
41926;DHT22;27615;51.826;5.692;2022-08-07T06:33:44;14.50;91.20
41926;DHT22;27615;51.826;5.692;2022-08-07T06:36:10;14.50;91.20
41926;DHT22;27615;51.826;5.692;2022-08-07T06:38:36;14.60;91.20
41926;DHT22;27615;51.826;5.692;2022-08-07T06:41:06;14.60;91.20
41926;DHT22;27615;51.826;5.692;2022-08-07T06:43:35;14.70;91.20
41926;DHT22;27615;51.826;5.692;2022-08-07T06:46:02;14.70;91.20
41926;DHT22;27615;51.826;5.692;2022-08-07T06:48:28;14.80;91.30
41926;DHT22;27615;51.826;5.692;2022-08-07T06:50:57;14.80;91.30
41926;DHT22;27615;51.826;5.692;2022-08-07T06:53:25;14.90;91.30
41926;DHT22;27615;51.826;5.692;2022-08-07T06:55:51;15.00;91.30
41926;DHT22;27615;51.826;5.692;2022-08-07T06:58:19;15.00;91.30
41926;DHT22;27615;51.826;5.692;2022-08-07T07:00:45;15.10;91.30
41926;DHT22;27615;51.826;5.692;2022-08-07T07:03:12;15.20;91.30
41926;DHT22;27615;51.826;5.692;2022-08-07T07:05:41;15.20;91.20
41926;DHT22;27615;51.826;5.692;2022-08-07T07:08:07;15.30;91.20
41926;DHT22;27615;51.826;5.692;2022-08-07T07:10:34;15.40;91.20
41926;DHT22;27615;51.826;5.692;2022-08-07T07:13:07;15.40;91.10
41926;DHT22;27615;51.826;5.692;2022-08-07T07:15:41;15.50;91.10
41926;DHT22;27615;51.826;5.692;2022-08-07T07:21:26;15.60;90.90
41926;DHT22;27615;51.826;5.692;2022-08-07T07:23:53;15.70;90.90
41926;DHT22;27615;51.826;5.692;2022-08-07T07:33:13;16.10;90.50
41926;DHT22;27615;51.826;5.692;2022-08-07T07:36:22;16.10;90.40
41926;DHT22;27615;51.826;5.692;2022-08-07T07:38:49;16.30;90.20
41926;DHT22;27615;51.826;5.692;2022-08-07T07:41:16;16.30;90.10
41926;DHT22;27615;51.826;5.692;2022-08-07T07:43:43;16.40;90.00
41926;DHT22;27615;51.826;5.692;2022-08-07T07:46:25;16.50;89.70
41926;DHT22;27615;51.826;5.692;2022-08-07T07:48:53;16.70;89.30
41926;DHT22;27615;51.826;5.692;2022-08-07T07:51:20;16.80;88.90
41926;DHT22;27615;51.826;5.692;2022-08-07T07:56:46;17.00;88.10
41926;DHT22;27615;51.826;5.692;2022-08-07T07:59:13;17.00;88.10
41926;DHT22;27615;51.826;5.692;2022-08-07T08:02:01;17.10;87.60
41926;DHT22;27615;51.826;5.692;2022-08-07T08:04:47;17.30;86.90
41926;DHT22;27615;51.826;5.692;2022-08-07T08:07:14;17.40;86.70
41926;DHT22;27615;51.826;5.692;2022-08-07T08:09:40;17.50;86.30
41926;DHT22;27615;51.826;5.692;2022-08-07T08:12:07;17.60;85.80
41926;DHT22;27615;51.826;5.692;2022-08-07T08:14:34;17.70;85.80
41926;DHT22;27615;51.826;5.692;2022-08-07T08:17:01;17.80;84.60
41926;DHT22;27615;51.826;5.692;2022-08-07T08:19:28;17.80;83.70
41926;DHT22;27615;51.826;5.692;2022-08-07T08:22:14;18.00;83.30
41926;DHT22;27615;51.826;5.692;2022-08-07T08:28:26;18.30;82.00
41926;DHT22;27615;51.826;5.692;2022-08-07T08:30:57;18.30;81.20
41926;DHT22;27615;51.826;5.692;2022-08-07T08:33:28;18.40;80.50
41926;DHT22;27615;51.826;5.692;2022-08-07T08:42:33;18.70;78.90
41926;DHT22;27615;51.826;5.692;2022-08-07T08:48:42;18.90;77.80
41926;DHT22;27615;51.826;5.692;2022-08-07T08:51:15;19.00;77.00
41926;DHT22;27615;51.826;5.692;2022-08-07T08:53:55;19.10;76.70
41926;DHT22;27615;51.826;5.692;2022-08-07T08:59:49;19.30;76.30
41926;DHT22;27615;51.826;5.692;2022-08-07T09:05:37;19.50;75.20
41926;DHT22;27615;51.826;5.692;2022-08-07T09:08:24;19.60;74.50
41926;DHT22;27615;51.826;5.692;2022-08-07T09:11:10;19.70;74.00
41926;DHT22;27615;51.826;5.692;2022-08-07T09:24:44;20.10;72.40
41926;DHT22;27615;51.826;5.692;2022-08-07T09:27:30;20.30;72.10
41926;DHT22;27615;51.826;5.692;2022-08-07T09:30:08;20.30;71.40
41926;DHT22;27615;51.826;5.692;2022-08-07T09:32:54;20.40;70.90
41926;DHT22;27615;51.826;5.692;2022-08-07T09:35:50;20.50;70.60
41926;DHT22;27615;51.826;5.692;2022-08-07T09:45:02;20.60;69.20
41926;DHT22;27615;51.826;5.692;2022-08-07T09:51:13;20.90;68.50
41926;DHT22;27615;51.826;5.692;2022-08-07T09:53:41;21.00;67.60
41926;DHT22;27615;51.826;5.692;2022-08-07T10:27:34;21.60;62.40
41926;DHT22;27615;51.826;5.692;2022-08-07T10:30:13;21.70;62.30
41926;DHT22;27615;51.826;5.692;2022-08-07T10:35:54;22.00;61.00
41926;DHT22;27615;51.826;5.692;2022-08-07T10:38:49;22.10;60.80
41926;DHT22;27615;51.826;5.692;2022-08-07T10:41:35;22.20;60.50
41926;DHT22;27615;51.826;5.692;2022-08-07T10:49:38;22.60;59.10
41926;DHT22;27615;51.826;5.692;2022-08-07T10:52:24;22.70;58.90
41926;DHT22;27615;51.826;5.692;2022-08-07T10:54:58;22.90;58.90
41926;DHT22;27615;51.826;5.692;2022-08-07T10:57:55;23.00;58.70
41926;DHT22;27615;51.826;5.692;2022-08-07T11:00:23;23.20;58.20
41926;DHT22;27615;51.826;5.692;2022-08-07T11:03:02;23.20;57.90
41926;DHT22;27615;51.826;5.692;2022-08-07T11:08:50;23.40;57.30
41926;DHT22;27615;51.826;5.692;2022-08-07T11:11:55;23.50;56.40
41926;DHT22;27615;51.826;5.692;2022-08-07T11:14:34;23.60;56.00
41926;DHT22;27615;51.826;5.692;2022-08-07T11:17:13;23.70;56.10
41926;DHT22;27615;51.826;5.692;2022-08-07T11:20:07;23.90;55.90
41926;DHT22;27615;51.826;5.692;2022-08-07T11:25:15;24.30;54.80
41926;DHT22;27615;51.826;5.692;2022-08-07T11:28:14;24.40;54.40
41926;DHT22;27615;51.826;5.692;2022-08-07T11:31:12;24.40;54.10
41926;DHT22;27615;51.826;5.692;2022-08-07T11:33:50;24.40;54.80
41926;DHT22;27615;51.826;5.692;2022-08-07T11:51:20;25.80;51.50
41926;DHT22;27615;51.826;5.692;2022-08-07T11:57:20;26.20;51.10
41926;DHT22;27615;51.826;5.692;2022-08-07T12:00:08;26.40;50.60
41926;DHT22;27615;51.826;5.692;2022-08-07T12:08:04;26.80;49.70
41926;DHT22;27615;51.826;5.692;2022-08-07T12:16:04;27.50;48.40
41926;DHT22;27615;51.826;5.692;2022-08-07T12:27:38;28.00;46.00
41926;DHT22;27615;51.826;5.692;2022-08-07T12:30:06;28.10;45.90
41926;DHT22;27615;51.826;5.692;2022-08-07T12:32:41;28.20;46.10
41926;DHT22;27615;51.826;5.692;2022-08-07T12:35:11;28.40;46.10
41926;DHT22;27615;51.826;5.692;2022-08-07T12:37:39;28.60;46.10
41926;DHT22;27615;51.826;5.692;2022-08-07T12:40:07;28.80;45.40
41926;DHT22;27615;51.826;5.692;2022-08-07T12:42:34;29.00;45.30
41926;DHT22;27615;51.826;5.692;2022-08-07T12:45:06;29.00;44.30
41926;DHT22;27615;51.826;5.692;2022-08-07T12:47:44;29.10;44.30
41926;DHT22;27615;51.826;5.692;2022-08-07T12:50:32;29.30;44.30
41926;DHT22;27615;51.826;5.692;2022-08-07T12:53:28;29.60;44.30
41926;DHT22;27615;51.826;5.692;2022-08-07T12:58:27;29.80;42.50
41926;DHT22;27615;51.826;5.692;2022-08-07T13:08:55;30.50;41.90
41926;DHT22;27615;51.826;5.692;2022-08-07T13:11:48;30.60;41.60
41926;DHT22;27615;51.826;5.692;2022-08-07T13:17:08;30.70;40.50
41926;DHT22;27615;51.826;5.692;2022-08-07T13:22:47;31.10;40.60
41926;DHT22;27615;51.826;5.692;2022-08-07T13:25:29;31.10;40.60
41926;DHT22;27615;51.826;5.692;2022-08-07T13:28:01;31.30;40.50
41926;DHT22;27615;51.826;5.692;2022-08-07T13:30:41;31.40;40.20
41926;DHT22;27615;51.826;5.692;2022-08-07T13:33:46;31.50;39.20
41926;DHT22;27615;51.826;5.692;2022-08-07T13:36:51;31.70;39.30
41926;DHT22;27615;51.826;5.692;2022-08-07T13:45:06;31.80;38.20
41926;DHT22;27615;51.826;5.692;2022-08-07T13:47:34;31.80;38.50
41926;DHT22;27615;51.826;5.692;2022-08-07T13:50:02;32.00;38.00
41926;DHT22;27615;51.826;5.692;2022-08-07T13:52:32;31.80;37.30
41926;DHT22;27615;51.826;5.692;2022-08-07T13:55:05;31.90;37.00
41926;DHT22;27615;51.826;5.692;2022-08-07T13:57:33;32.00;37.80
41926;DHT22;27615;51.826;5.692;2022-08-07T14:00:00;32.20;38.10
41926;DHT22;27615;51.826;5.692;2022-08-07T14:02:28;32.40;38.00
41926;DHT22;27615;51.826;5.692;2022-08-07T14:05:02;32.50;37.60
41926;DHT22;27615;51.826;5.692;2022-08-07T14:07:36;32.50;37.10
41926;DHT22;27615;51.826;5.692;2022-08-07T14:10:02;32.20;36.10
41926;DHT22;27615;51.826;5.692;2022-08-07T14:15:05;32.40;36.30
41926;DHT22;27615;51.826;5.692;2022-08-07T14:17:39;32.50;36.70
41926;DHT22;27615;51.826;5.692;2022-08-07T14:20:21;32.60;36.90
41926;DHT22;27615;51.826;5.692;2022-08-07T14:23:01;32.80;36.90
41926;DHT22;27615;51.826;5.692;2022-08-07T14:25:30;33.00;36.90
41926;DHT22;27615;51.826;5.692;2022-08-07T14:27:57;33.20;37.00
41926;DHT22;27615;51.826;5.692;2022-08-07T14:30:24;33.20;36.80
41926;DHT22;27615;51.826;5.692;2022-08-07T14:32:56;33.40;36.70
41926;DHT22;27615;51.826;5.692;2022-08-07T14:38:29;33.40;36.40
41926;DHT22;27615;51.826;5.692;2022-08-07T14:41:06;33.50;36.40
41926;DHT22;27615;51.826;5.692;2022-08-07T14:43:41;33.50;36.30
41926;DHT22;27615;51.826;5.692;2022-08-07T14:46:09;33.50;35.90
41926;DHT22;27615;51.826;5.692;2022-08-07T14:48:37;33.50;36.10
41926;DHT22;27615;51.826;5.692;2022-08-07T14:51:07;33.60;35.50
41926;DHT22;27615;51.826;5.692;2022-08-07T14:53:40;33.60;35.50
41926;DHT22;27615;51.826;5.692;2022-08-07T14:56:08;33.40;33.90
41926;DHT22;27615;51.826;5.692;2022-08-07T14:58:36;32.70;33.70
41926;DHT22;27615;51.826;5.692;2022-08-07T15:01:08;32.40;35.10
41926;DHT22;27615;51.826;5.692;2022-08-07T15:03:58;32.60;35.70
41926;DHT22;27615;51.826;5.692;2022-08-07T15:06:29;33.00;35.50
41926;DHT22;27615;51.826;5.692;2022-08-07T15:09:14;33.30;35.50
41926;DHT22;27615;51.826;5.692;2022-08-07T15:11:55;33.40;35.50
41926;DHT22;27615;51.826;5.692;2022-08-07T15:14:24;33.40;35.40
41926;DHT22;27615;51.826;5.692;2022-08-07T15:16:55;33.50;35.20
41926;DHT22;27615;51.826;5.692;2022-08-07T15:19:23;33.60;35.20
41926;DHT22;27615;51.826;5.692;2022-08-07T15:21:53;33.50;35.50
41926;DHT22;27615;51.826;5.692;2022-08-07T15:24:34;33.50;35.60
41926;DHT22;27615;51.826;5.692;2022-08-07T15:27:19;33.50;35.80
41926;DHT22;27615;51.826;5.692;2022-08-07T15:29:50;33.70;36.80
41926;DHT22;27615;51.826;5.692;2022-08-07T15:32:17;33.70;35.90
41926;DHT22;27615;51.826;5.692;2022-08-07T15:34:52;33.70;36.10
41926;DHT22;27615;51.826;5.692;2022-08-07T15:37:28;33.60;36.20
41926;DHT22;27615;51.826;5.692;2022-08-07T15:39:57;33.50;36.00
41926;DHT22;27615;51.826;5.692;2022-08-07T15:42:36;33.30;36.20
41926;DHT22;27615;51.826;5.692;2022-08-07T15:45:24;33.20;36.50
41926;DHT22;27615;51.826;5.692;2022-08-07T15:47:51;33.20;36.60
41926;DHT22;27615;51.826;5.692;2022-08-07T15:50:20;33.30;36.70
41926;DHT22;27615;51.826;5.692;2022-08-07T15:53:28;33.30;36.60
41926;DHT22;27615;51.826;5.692;2022-08-07T15:56:02;33.30;36.50
41926;DHT22;27615;51.826;5.692;2022-08-07T15:58:52;33.40;36.30
41926;DHT22;27615;51.826;5.692;2022-08-07T16:01:43;33.40;36.30
41926;DHT22;27615;51.826;5.692;2022-08-07T16:04:11;33.40;36.10
41926;DHT22;27615;51.826;5.692;2022-08-07T16:06:55;33.30;35.40
41926;DHT22;27615;51.826;5.692;2022-08-07T16:09:46;33.20;35.50
41926;DHT22;27615;51.826;5.692;2022-08-07T16:12:29;33.00;35.70
41926;DHT22;27615;51.826;5.692;2022-08-07T16:15:30;32.80;36.10
41926;DHT22;27615;51.826;5.692;2022-08-07T16:20:57;32.90;36.50
41926;DHT22;27615;51.826;5.692;2022-08-07T16:23:30;32.80;36.60
41926;DHT22;27615;51.826;5.692;2022-08-07T16:29:30;32.60;36.90
41926;DHT22;27615;51.826;5.692;2022-08-07T16:32:01;32.50;37.00
41926;DHT22;27615;51.826;5.692;2022-08-07T16:48:42;31.80;37.40
41926;DHT22;27615;51.826;5.692;2022-08-07T16:54:39;31.40;37.70
41926;DHT22;27615;51.826;5.692;2022-08-07T16:57:29;31.30;37.70
41926;DHT22;27615;51.826;5.692;2022-08-07T17:07:57;31.00;38.20
41926;DHT22;27615;51.826;5.692;2022-08-07T17:10:54;30.90;38.20
41926;DHT22;27615;51.826;5.692;2022-08-07T17:13:30;30.90;38.20
41926;DHT22;27615;51.826;5.692;2022-08-07T17:18:59;30.80;38.30
41926;DHT22;27615;51.826;5.692;2022-08-07T17:21:43;30.80;38.40
41926;DHT22;27615;51.826;5.692;2022-08-07T17:29:58;30.80;38.60
41926;DHT22;27615;51.826;5.692;2022-08-07T17:32:50;30.80;38.60
41926;DHT22;27615;51.826;5.692;2022-08-07T17:35:29;30.90;38.60
41926;DHT22;27615;51.826;5.692;2022-08-07T17:38:01;31.00;38.60
41926;DHT22;27615;51.826;5.692;2022-08-07T17:40:55;30.80;38.60
41926;DHT22;27615;51.826;5.692;2022-08-07T17:43:29;30.80;38.70
41926;DHT22;27615;51.826;5.692;2022-08-07T17:46:12;30.80;38.90
41926;DHT22;27615;51.826;5.692;2022-08-07T17:48:56;30.80;38.80
41926;DHT22;27615;51.826;5.692;2022-08-07T17:51:36;30.70;38.80
41926;DHT22;27615;51.826;5.692;2022-08-07T17:54:12;30.70;38.90
41926;DHT22;27615;51.826;5.692;2022-08-07T17:57:10;30.50;39.00
41926;DHT22;27615;51.826;5.692;2022-08-07T17:59:44;30.40;39.10
41926;DHT22;27615;51.826;5.692;2022-08-07T18:02:28;30.30;39.40
41926;DHT22;27615;51.826;5.692;2022-08-07T18:13:38;29.90;40.10
41926;DHT22;27615;51.826;5.692;2022-08-07T18:16:08;29.60;40.40
41926;DHT22;27615;51.826;5.692;2022-08-07T18:18:54;29.50;40.90
41926;DHT22;27615;51.826;5.692;2022-08-07T18:24:35;29.30;41.50
41926;DHT22;27615;51.826;5.692;2022-08-07T18:33:27;28.70;42.40
41926;DHT22;27615;51.826;5.692;2022-08-07T18:47:35;27.80;43.90
41926;DHT22;27615;51.826;5.692;2022-08-07T18:50:36;27.70;44.10
41926;DHT22;27615;51.826;5.692;2022-08-07T18:56:42;27.30;44.70
41926;DHT22;27615;51.826;5.692;2022-08-07T18:59:39;27.10;44.90
41926;DHT22;27615;51.826;5.692;2022-08-07T19:05:07;26.80;45.50
41926;DHT22;27615;51.826;5.692;2022-08-07T19:10:18;26.50;45.80
41926;DHT22;27615;51.826;5.692;2022-08-07T19:16:00;26.20;46.50
41926;DHT22;27615;51.826;5.692;2022-08-07T19:21:46;25.80;47.00
41926;DHT22;27615;51.826;5.692;2022-08-07T19:24:28;25.60;47.50
41926;DHT22;27615;51.826;5.692;2022-08-07T19:27:02;25.50;47.80
41926;DHT22;27615;51.826;5.692;2022-08-07T19:29:32;25.30;48.10
41926;DHT22;27615;51.826;5.692;2022-08-07T19:32:04;25.20;48.40
41926;DHT22;27615;51.826;5.692;2022-08-07T19:34:30;25.10;48.60
41926;DHT22;27615;51.826;5.692;2022-08-07T19:36:58;25.10;49.40
41926;DHT22;27615;51.826;5.692;2022-08-07T19:39:28;25.00;49.00
41926;DHT22;27615;51.826;5.692;2022-08-07T19:41:55;24.90;49.20
41926;DHT22;27615;51.826;5.692;2022-08-07T19:44:40;24.80;49.40
41926;DHT22;27615;51.826;5.692;2022-08-07T19:47:09;24.70;49.60
41926;DHT22;27615;51.826;5.692;2022-08-07T19:49:43;24.50;50.10
41926;DHT22;27615;51.826;5.692;2022-08-07T19:52:12;24.50;50.40
41926;DHT22;27615;51.826;5.692;2022-08-07T19:54:42;24.30;50.70
41926;DHT22;27615;51.826;5.692;2022-08-07T19:57:10;24.20;51.60
41926;DHT22;27615;51.826;5.692;2022-08-07T19:59:40;24.00;51.40
41926;DHT22;27615;51.826;5.692;2022-08-07T20:02:10;23.90;51.80
41926;DHT22;27615;51.826;5.692;2022-08-07T20:04:40;23.80;52.00
41926;DHT22;27615;51.826;5.692;2022-08-07T20:07:11;23.70;52.30
41926;DHT22;27615;51.826;5.692;2022-08-07T20:09:47;23.50;52.60
41926;DHT22;27615;51.826;5.692;2022-08-07T20:12:14;23.50;52.90
41926;DHT22;27615;51.826;5.692;2022-08-07T20:14:46;23.30;53.30
41926;DHT22;27615;51.826;5.692;2022-08-07T20:17:14;23.20;53.60
41926;DHT22;27615;51.826;5.692;2022-08-07T20:19:41;23.10;53.90